createdAt,value
2019-05-14T00:00:44.028Z,28.30
2019-05-14T00:03:16.927Z,28.30
2019-05-14T00:05:48.474Z,28.30
2019-05-14T00:08:22.207Z,28.40
2019-05-14T00:10:57.506Z,28.40
2019-05-14T00:13:32.352Z,28.50
2019-05-14T00:16:05.881Z,28.60
2019-05-14T00:18:38.435Z,28.60
2019-05-14T00:21:12.220Z,28.60
2019-05-14T00:23:51.498Z,28.70
2019-05-14T00:26:24.868Z,28.70
2019-05-14T00:29:01.639Z,28.80
2019-05-14T00:31:36.484Z,28.90
2019-05-14T00:34:11.027Z,29.00
2019-05-14T00:36:43.452Z,29.00
2019-05-14T00:39:16.978Z,29.10
2019-05-14T00:41:51.080Z,29.10
2019-05-14T00:44:22.891Z,29.20
2019-05-14T00:46:55.719Z,29.20
2019-05-14T00:49:35.413Z,29.20
2019-05-14T00:52:11.506Z,29.30
2019-05-14T00:54:43.709Z,29.30
2019-05-14T00:57:15.363Z,29.40
2019-05-14T00:59:47.841Z,29.40
2019-05-14T01:02:21.596Z,29.50
2019-05-14T01:05:01.861Z,29.60
2019-05-14T01:07:34.444Z,29.70
2019-05-14T01:10:08.832Z,29.90
2019-05-14T01:12:41.858Z,30.00
2019-05-14T01:15:14.424Z,30.10
2019-05-14T01:17:51.624Z,30.20
2019-05-14T01:20:25.991Z,30.30
2019-05-14T01:23:02.305Z,30.20
2019-05-14T01:25:36.658Z,30.10
2019-05-14T01:28:11.265Z,30.00
2019-05-14T01:30:45.079Z,29.90
2019-05-14T01:33:17.822Z,29.90
2019-05-14T01:35:51.231Z,30.00
2019-05-14T01:38:23.947Z,30.00
2019-05-14T01:40:56.980Z,30.00
2019-05-14T01:43:31.287Z,30.10
2019-05-14T01:46:04.200Z,30.10
2019-05-14T01:48:36.970Z,30.20
2019-05-14T01:51:08.380Z,30.30
2019-05-14T01:53:41.657Z,30.60
2019-05-14T01:56:14.401Z,30.70
2019-05-14T01:58:46.348Z,30.80
2019-05-14T02:01:21.661Z,30.90
2019-05-14T02:03:53.334Z,30.90
2019-05-14T02:06:26.195Z,30.90
2019-05-14T02:08:59.177Z,30.90
2019-05-14T02:11:32.080Z,30.90
2019-05-14T02:14:05.571Z,31.00
2019-05-14T02:16:38.072Z,31.10
2019-05-14T02:19:11.419Z,31.20
2019-05-14T02:21:43.624Z,31.30
2019-05-14T02:24:16.495Z,31.30
2019-05-14T02:26:51.460Z,31.30
2019-05-14T02:29:25.669Z,31.30
2019-05-14T02:31:58.957Z,31.20
2019-05-14T02:34:31.805Z,31.30
2019-05-14T02:37:04.704Z,31.30
2019-05-14T02:39:50.044Z,31.30
2019-05-14T02:42:19.867Z,31.50
2019-05-14T02:44:59.314Z,31.80
2019-05-14T02:47:41.601Z,32.10
2019-05-14T02:50:14.987Z,32.50
2019-05-14T02:52:51.845Z,32.60
2019-05-14T02:55:24.383Z,32.60
2019-05-14T02:57:59.888Z,32.70
2019-05-14T03:00:35.357Z,32.80
2019-05-14T03:03:11.486Z,33.00
2019-05-14T03:05:44.030Z,33.30
2019-05-14T03:08:30.099Z,33.50
2019-05-14T03:11:00.605Z,33.70
2019-05-14T03:13:39.992Z,33.90
2019-05-14T03:16:28.159Z,34.10
2019-05-14T03:18:50.686Z,34.00
2019-05-14T03:21:23.908Z,33.60
2019-05-14T03:24:00.620Z,33.40
2019-05-14T03:26:31.536Z,33.60
2019-05-14T03:29:04.636Z,33.30
2019-05-14T03:31:41.899Z,33.10
2019-05-14T03:34:13.401Z,33.10
2019-05-14T03:36:51.837Z,32.90
2019-05-14T03:39:20.815Z,33.00
2019-05-14T03:41:58.714Z,33.00
2019-05-14T03:44:33.626Z,33.10
2019-05-14T03:47:10.339Z,33.20
2019-05-14T03:49:41.667Z,33.30
2019-05-14T03:52:15.439Z,33.40
2019-05-14T03:54:50.126Z,33.60
2019-05-14T03:57:22.664Z,33.70
2019-05-14T03:59:59.450Z,33.70
2019-05-14T04:02:38.959Z,33.70
2019-05-14T04:05:11.069Z,33.60
2019-05-14T04:07:45.978Z,33.90
2019-05-14T04:10:19.518Z,34.00
2019-05-14T04:12:54.185Z,34.10
2019-05-14T04:15:29.834Z,34.30
2019-05-14T04:18:02.738Z,34.30
2019-05-14T04:20:39.261Z,34.20
2019-05-14T04:23:13.083Z,34.30
2019-05-14T04:25:49.633Z,34.20
2019-05-14T04:28:22.498Z,34.20
2019-05-14T04:30:59.384Z,34.20
2019-05-14T04:33:30.700Z,34.30
2019-05-14T04:36:04.137Z,34.20
2019-05-14T04:38:40.458Z,34.00
2019-05-14T04:41:11.778Z,34.00
2019-05-14T04:43:44.627Z,34.00
2019-05-14T04:46:18.882Z,34.00
2019-05-14T04:48:51.153Z,34.00
2019-05-14T04:51:23.866Z,33.90
2019-05-14T04:53:59.803Z,34.10
2019-05-14T04:56:33.445Z,34.20
2019-05-14T04:59:06.020Z,34.30
2019-05-14T05:01:40.102Z,34.40
2019-05-14T05:04:12.593Z,34.40
2019-05-14T05:06:45.553Z,34.50
2019-05-14T05:09:20.027Z,34.50
2019-05-14T05:11:52.695Z,34.60
2019-05-14T05:14:25.254Z,34.70
2019-05-14T05:16:59.678Z,34.80
2019-05-14T05:19:33.299Z,34.80
2019-05-14T05:22:08.025Z,34.90
2019-05-14T05:24:42.244Z,34.90
2019-05-14T05:27:18.535Z,34.80
2019-05-14T05:29:52.064Z,34.80
2019-05-14T05:32:24.660Z,34.90
2019-05-14T05:34:58.751Z,35.00
2019-05-14T05:37:33.870Z,35.00
2019-05-14T05:40:09.210Z,35.20
2019-05-14T05:42:45.386Z,35.30
2019-05-14T05:45:18.573Z,35.10
2019-05-14T05:47:57.435Z,35.20
2019-05-14T05:50:28.548Z,35.60
2019-05-14T05:53:00.634Z,35.90
2019-05-14T05:55:32.248Z,36.00
2019-05-14T05:58:04.786Z,36.30
2019-05-14T06:00:39.877Z,36.50
2019-05-14T06:03:13.061Z,36.50
2019-05-14T06:05:45.593Z,36.70
2019-05-14T06:08:21.135Z,37.00
2019-05-14T06:10:54.810Z,36.90
2019-05-14T06:13:28.734Z,36.70
2019-05-14T06:16:02.069Z,36.50
2019-05-14T06:18:35.203Z,36.60
2019-05-14T06:21:09.177Z,36.60
2019-05-14T06:23:42.631Z,36.60
2019-05-14T06:26:18.768Z,36.50
2019-05-14T06:28:50.383Z,36.30
2019-05-14T06:31:23.048Z,36.30
2019-05-14T06:33:58.946Z,36.40
2019-05-14T06:36:30.038Z,36.40
2019-05-14T06:39:02.623Z,36.20
2019-05-14T06:41:34.288Z,36.20
2019-05-14T06:44:09.051Z,36.00
2019-05-14T06:46:41.359Z,35.90
2019-05-14T06:49:13.914Z,36.40
2019-05-14T06:51:48.857Z,36.70
2019-05-14T06:54:20.649Z,36.70
2019-05-14T06:56:55.104Z,36.50
2019-05-14T06:59:28.850Z,36.20
2019-05-14T07:02:03.062Z,36.00
2019-05-14T07:04:39.178Z,35.90
2019-05-14T07:07:10.797Z,36.10
2019-05-14T07:09:44.139Z,36.60
2019-05-14T07:12:19.059Z,37.00
2019-05-14T07:14:51.060Z,37.40
2019-05-14T07:17:24.194Z,37.50
2019-05-14T07:19:58.288Z,37.30
2019-05-14T07:22:31.469Z,37.20
2019-05-14T07:25:04.806Z,37.00
2019-05-14T07:27:39.241Z,36.70
2019-05-14T07:30:14.234Z,36.50
2019-05-14T07:32:48.241Z,36.30
2019-05-14T07:35:20.812Z,36.20
2019-05-14T07:37:58.991Z,36.30
2019-05-14T07:40:29.167Z,36.40
2019-05-14T07:43:02.256Z,36.70
2019-05-14T07:45:33.649Z,37.50
2019-05-14T07:48:08.689Z,38.10
2019-05-14T07:50:40.928Z,38.80
2019-05-14T07:53:15.030Z,39.70
2019-05-14T07:55:49.244Z,40.20
2019-05-14T07:58:20.521Z,40.40
2019-05-14T08:00:58.378Z,40.50
2019-05-14T08:03:30.919Z,41.10
2019-05-14T08:06:03.552Z,40.90
2019-05-14T08:08:38.259Z,41.00
2019-05-14T08:11:10.086Z,41.50
2019-05-14T08:13:43.874Z,41.20
2019-05-14T08:16:18.659Z,41.50
2019-05-14T08:18:51.032Z,41.00
2019-05-14T08:21:23.852Z,40.10
2019-05-14T08:23:59.134Z,39.60
2019-05-14T08:26:32.077Z,38.80
2019-05-14T08:29:10.665Z,37.90
2019-05-14T08:31:48.609Z,37.30
2019-05-14T08:34:22.757Z,36.80
2019-05-14T08:36:55.414Z,36.50
2019-05-14T08:39:30.679Z,35.90
2019-05-14T08:42:04.430Z,35.60
2019-05-14T08:44:47.923Z,35.30
2019-05-14T08:47:20.863Z,35.10
2019-05-14T08:49:59.927Z,34.80
2019-05-14T08:52:34.572Z,34.50
2019-05-14T08:55:10.895Z,34.20
2019-05-14T08:57:42.692Z,34.00
2019-05-14T09:00:14.374Z,33.80
2019-05-14T09:02:48.567Z,33.70
2019-05-14T09:05:21.364Z,33.70
2019-05-14T09:07:53.134Z,33.50
2019-05-14T09:10:28.375Z,33.30
2019-05-14T09:13:02.724Z,33.10
2019-05-14T09:15:38.490Z,33.00
2019-05-14T09:18:12.049Z,32.90
2019-05-14T09:20:44.888Z,32.90
2019-05-14T09:23:22.598Z,32.70
2019-05-14T09:25:55.245Z,32.60
2019-05-14T09:28:30.952Z,32.60
2019-05-14T09:31:04.070Z,32.50
2019-05-14T09:33:39.042Z,32.40
2019-05-14T09:36:22.784Z,32.40
2019-05-14T09:38:51.457Z,32.30
2019-05-14T09:41:27.592Z,32.30
2019-05-14T09:43:59.497Z,32.30
2019-05-14T09:46:31.918Z,32.20
2019-05-14T09:49:04.872Z,32.10
2019-05-14T09:51:40.222Z,32.00
2019-05-14T09:54:15.021Z,31.90
2019-05-14T09:56:48.542Z,31.80
2019-05-14T09:59:24.714Z,31.80
2019-05-14T10:01:58.798Z,31.60
2019-05-14T10:04:31.999Z,31.60
2019-05-14T10:07:05.252Z,31.60
2019-05-14T10:09:38.884Z,31.50
2019-05-14T10:12:11.932Z,31.40
2019-05-14T10:14:49.063Z,31.40
2019-05-14T10:17:22.347Z,31.40
2019-05-14T10:19:55.183Z,31.30
2019-05-14T10:22:28.549Z,31.20
2019-05-14T10:25:02.216Z,31.20
2019-05-14T10:27:36.592Z,30.90
2019-05-14T10:30:13.851Z,30.60
2019-05-14T10:32:49.264Z,30.40
2019-05-14T10:35:23.558Z,30.40
2019-05-14T10:37:59.833Z,30.40
2019-05-14T10:40:32.990Z,30.50
2019-05-14T10:43:10.444Z,30.40
2019-05-14T10:45:44.138Z,30.50
2019-05-14T10:48:18.542Z,30.50
2019-05-14T10:51:03.146Z,30.40
2019-05-14T10:53:28.669Z,30.40
2019-05-14T10:56:03.618Z,30.50
2019-05-14T10:58:36.280Z,30.60
2019-05-14T11:01:11.225Z,30.50
2019-05-14T11:03:44.599Z,30.30
2019-05-14T11:06:18.718Z,30.20
2019-05-14T11:08:51.838Z,29.90
2019-05-14T11:11:25.140Z,29.50
2019-05-14T11:13:59.954Z,29.50
2019-05-14T11:16:32.751Z,29.40
2019-05-14T11:19:09.060Z,29.10
2019-05-14T11:21:39.937Z,28.60
2019-05-14T11:24:13.245Z,28.60
2019-05-14T11:26:48.540Z,28.70
2019-05-14T11:29:20.599Z,28.60
2019-05-14T11:31:53.323Z,28.50
2019-05-14T11:34:38.770Z,28.40
2019-05-14T11:37:12.205Z,28.30
2019-05-14T11:39:45.163Z,28.20
2019-05-14T11:42:20.422Z,28.40
2019-05-14T11:44:53.933Z,28.50
2019-05-14T11:47:28.166Z,28.40
2019-05-14T11:50:01.515Z,28.60
2019-05-14T11:52:35.310Z,28.70
2019-05-14T11:55:09.759Z,28.60
2019-05-14T11:57:43.799Z,28.50
2019-05-14T12:00:20.691Z,28.50
2019-05-14T12:02:54.305Z,28.40
2019-05-14T12:05:30.451Z,28.40
2019-05-14T12:08:02.531Z,28.20
2019-05-14T12:10:35.254Z,28.20
2019-05-14T12:13:08.537Z,28.00
2019-05-14T12:15:41.754Z,27.80
2019-05-14T12:18:13.439Z,27.90
2019-05-14T12:20:49.709Z,27.90
2019-05-14T12:23:20.633Z,27.90
2019-05-14T12:25:53.595Z,28.00
2019-05-14T12:28:28.933Z,28.10
2019-05-14T12:31:00.827Z,28.10
2019-05-14T12:33:33.598Z,28.20
2019-05-14T12:36:05.464Z,28.20
2019-05-14T12:38:38.281Z,28.10
2019-05-14T12:41:11.148Z,28.00
2019-05-14T12:43:43.892Z,27.80
2019-05-14T12:46:19.839Z,27.80
2019-05-14T12:49:06.699Z,27.70
2019-05-14T12:51:31.406Z,27.60
2019-05-14T12:54:05.605Z,27.70
2019-05-14T12:56:39.085Z,27.60
2019-05-14T12:59:11.966Z,27.70
2019-05-14T13:01:44.963Z,27.70
2019-05-14T13:04:20.070Z,27.40
2019-05-14T13:06:54.866Z,27.40
2019-05-14T13:09:28.135Z,27.50
2019-05-14T13:12:01.160Z,27.40
2019-05-14T13:14:39.500Z,27.30
2019-05-14T13:17:11.721Z,27.40
2019-05-14T13:19:48.700Z,27.60
2019-05-14T13:22:41.548Z,27.70
2019-05-14T13:25:10.585Z,27.80
2019-05-14T13:27:52.973Z,27.70
2019-05-14T13:30:43.342Z,27.80
2019-05-14T13:33:10.636Z,27.70
2019-05-14T13:35:51.084Z,27.80
2019-05-14T13:38:23.582Z,27.80
2019-05-14T13:40:59.454Z,27.80
2019-05-14T13:43:55.019Z,27.80
2019-05-14T13:46:23.817Z,27.80
2019-05-14T13:48:59.083Z,27.70
2019-05-14T13:51:33.955Z,27.60
2019-05-14T13:54:08.472Z,27.70
2019-05-14T13:56:48.359Z,27.60
2019-05-14T13:59:21.539Z,27.60
2019-05-14T14:01:55.339Z,27.70
2019-05-14T14:04:28.222Z,27.50
2019-05-14T14:07:01.391Z,27.40
2019-05-14T14:09:33.440Z,27.40
2019-05-14T14:12:08.181Z,27.40
2019-05-14T14:14:41.254Z,27.60
2019-05-14T14:17:18.271Z,27.50
2019-05-14T14:19:50.172Z,27.50
2019-05-14T14:22:22.914Z,27.60
2019-05-14T14:24:59.085Z,27.60
2019-05-14T14:27:30.319Z,27.60
2019-05-14T14:30:03.446Z,27.50
2019-05-14T14:32:36.671Z,27.60
2019-05-14T14:35:09.822Z,27.50
2019-05-14T14:37:45.052Z,27.60
2019-05-14T14:40:21.390Z,27.60
2019-05-14T14:42:52.242Z,27.60
2019-05-14T14:45:29.007Z,27.60
2019-05-14T14:48:01.284Z,27.70
2019-05-14T14:50:34.425Z,27.70
2019-05-14T14:53:09.291Z,27.60
2019-05-14T14:55:45.357Z,27.60
2019-05-14T14:58:20.008Z,27.60
2019-05-14T15:00:53.306Z,27.60
2019-05-14T15:03:29.615Z,27.50
2019-05-14T15:06:03.773Z,27.50
2019-05-14T15:11:39.400Z,27.40
2019-05-14T15:14:10.895Z,27.40
2019-05-14T15:16:45.112Z,27.50
2019-05-14T15:19:19.320Z,27.40
2019-05-14T15:21:52.808Z,27.40
2019-05-14T15:24:25.553Z,27.50
2019-05-14T15:27:15.145Z,27.60
2019-05-14T15:29:48.706Z,27.70
2019-05-14T15:32:20.813Z,27.70
2019-05-14T15:34:52.981Z,27.70
2019-05-14T15:37:31.239Z,27.70
2019-05-14T15:40:03.929Z,27.70
2019-05-14T15:42:35.374Z,27.80
2019-05-14T15:45:09.295Z,27.70
2019-05-14T15:47:42.665Z,27.80
2019-05-14T15:50:20.057Z,27.80
2019-05-14T15:52:53.008Z,27.80
2019-05-14T15:55:28.911Z,27.80
2019-05-14T15:58:03.905Z,27.70
2019-05-14T16:00:38.569Z,27.60
2019-05-14T16:03:11.158Z,27.60
2019-05-14T16:05:44.932Z,27.70
2019-05-14T16:08:22.581Z,27.70
2019-05-14T16:10:53.539Z,27.70
2019-05-14T16:13:28.542Z,27.80
2019-05-14T16:16:01.151Z,27.70
2019-05-14T16:18:34.412Z,27.70
2019-05-14T16:21:05.991Z,27.70
2019-05-14T16:23:42.482Z,27.60
2019-05-14T16:26:18.791Z,27.70
2019-05-14T16:28:52.081Z,27.70
2019-05-14T16:31:36.842Z,27.60
2019-05-14T16:34:09.744Z,27.60
2019-05-14T16:36:42.685Z,27.50
2019-05-14T16:39:16.072Z,27.50
2019-05-14T16:41:49.122Z,27.40
2019-05-14T16:44:21.860Z,27.40
2019-05-14T16:46:54.271Z,27.40
2019-05-14T16:49:29.393Z,27.40
2019-05-14T16:52:02.341Z,27.40
2019-05-14T16:54:35.406Z,27.50
2019-05-14T16:57:10.939Z,27.50
2019-05-14T16:59:42.266Z,27.60
2019-05-14T17:02:18.905Z,27.60
2019-05-14T17:04:50.809Z,27.60
2019-05-14T17:07:23.842Z,27.60
2019-05-14T17:09:58.133Z,27.60
2019-05-14T17:12:46.955Z,27.50
2019-05-14T17:15:04.727Z,27.50
2019-05-14T17:17:37.830Z,27.50
2019-05-14T17:20:11.258Z,27.50
2019-05-14T17:22:43.714Z,27.40
2019-05-14T17:25:26.669Z,27.40
2019-05-14T17:27:50.950Z,27.40
2019-05-14T17:30:25.540Z,27.40
2019-05-14T17:32:58.974Z,27.40
2019-05-14T17:35:33.660Z,27.40
2019-05-14T17:38:09.077Z,27.30
2019-05-14T17:40:45.372Z,27.40
2019-05-14T17:43:23.258Z,27.40
2019-05-14T17:45:55.274Z,27.40
2019-05-14T17:48:28.466Z,27.40
2019-05-14T17:51:01.563Z,27.40
2019-05-14T17:53:34.134Z,27.30
2019-05-14T17:56:08.351Z,27.30
2019-05-14T17:58:40.699Z,27.30
2019-05-14T18:01:13.429Z,27.30
2019-05-14T18:03:48.842Z,27.30
2019-05-14T18:06:20.098Z,27.30
2019-05-14T18:08:52.738Z,27.30
2019-05-14T18:11:25.060Z,27.30
2019-05-14T18:13:58.960Z,27.30
2019-05-14T18:16:31.875Z,27.30
2019-05-14T18:19:04.519Z,27.30
2019-05-14T18:21:38.927Z,27.30
2019-05-14T18:24:13.326Z,27.30
2019-05-14T18:26:47.932Z,27.30
2019-05-14T18:29:21.510Z,27.30
2019-05-14T18:31:54.990Z,27.40
2019-05-14T18:34:28.454Z,27.40
2019-05-14T18:37:01.494Z,27.40
2019-05-14T18:39:34.410Z,27.50
2019-05-14T18:42:08.590Z,27.40
2019-05-14T18:45:34.106Z,27.40
2019-05-14T18:48:08.507Z,27.30
2019-05-14T18:50:41.187Z,27.40
2019-05-14T18:53:13.214Z,27.40
2019-05-14T18:55:59.672Z,27.40
2019-05-14T18:58:32.767Z,27.40
2019-05-14T19:01:05.637Z,27.40
2019-05-14T19:03:39.619Z,27.40
2019-05-14T19:06:12.792Z,27.30
2019-05-14T19:08:44.569Z,27.40
2019-05-14T19:11:18.387Z,27.40
2019-05-14T19:13:51.340Z,27.40
2019-05-14T19:16:28.668Z,27.40
2019-05-14T19:19:00.803Z,27.50
2019-05-14T19:21:33.354Z,27.50
2019-05-14T19:24:06.054Z,27.50
2019-05-14T19:26:40.383Z,27.50
2019-05-14T19:29:12.579Z,27.50
2019-05-14T19:31:47.969Z,27.50
2019-05-14T19:34:20.256Z,27.50
2019-05-14T19:36:52.743Z,27.50
2019-05-14T19:39:28.172Z,27.50
2019-05-14T19:42:00.757Z,27.50
2019-05-14T19:44:33.947Z,27.50
2019-05-14T19:47:05.270Z,27.60
2019-05-14T19:49:38.258Z,27.50
2019-05-14T19:52:09.708Z,27.60
2019-05-14T19:54:42.721Z,27.50
2019-05-14T19:57:15.131Z,27.40
2019-05-14T19:59:49.091Z,27.50
2019-05-14T20:02:22.221Z,27.60
2019-05-14T20:04:54.608Z,27.50
2019-05-14T20:07:27.979Z,27.50
2019-05-14T20:10:00.426Z,27.50
2019-05-14T20:12:33.652Z,27.60
2019-05-14T20:15:09.435Z,27.60
2019-05-14T20:17:42.005Z,27.70
2019-05-14T20:20:15.242Z,27.60
2019-05-14T20:23:01.246Z,27.60
2019-05-14T20:25:34.448Z,27.50
2019-05-14T20:28:08.027Z,27.50
2019-05-14T20:30:40.017Z,27.50
2019-05-14T20:33:12.411Z,27.50
2019-05-14T20:35:45.434Z,27.40
2019-05-14T20:38:18.421Z,27.50
2019-05-14T20:40:51.767Z,27.50
2019-05-14T20:43:24.198Z,27.50
2019-05-14T20:45:59.464Z,27.50
2019-05-14T20:48:33.058Z,27.50
2019-05-14T20:51:08.834Z,27.40
2019-05-14T20:53:41.155Z,27.50
2019-05-14T20:56:13.960Z,27.40
2019-05-14T20:58:48.164Z,27.40
2019-05-14T21:01:21.316Z,27.40
2019-05-14T21:03:55.142Z,27.50
2019-05-14T21:06:28.254Z,27.50
2019-05-14T21:08:59.727Z,27.50
2019-05-14T21:11:32.598Z,27.40
2019-05-14T21:14:05.977Z,27.40
2019-05-14T21:16:39.158Z,27.40
2019-05-14T21:19:12.373Z,27.40
2019-05-14T21:21:44.125Z,27.40
2019-05-14T21:24:18.149Z,27.40
2019-05-14T21:26:51.963Z,27.40
2019-05-14T21:29:24.399Z,27.40
2019-05-14T21:32:01.329Z,27.40
2019-05-14T21:34:31.816Z,27.40
2019-05-14T21:37:04.377Z,27.40
2019-05-14T21:39:38.348Z,27.40
2019-05-14T21:42:13.388Z,27.40
2019-05-14T21:44:48.318Z,27.40
2019-05-14T21:47:20.336Z,27.30
2019-05-14T21:49:52.129Z,27.30
2019-05-14T21:52:25.080Z,27.20
2019-05-14T21:54:58.616Z,27.30
2019-05-14T21:57:30.944Z,27.30
2019-05-14T22:00:03.689Z,27.30
2019-05-14T22:02:38.313Z,27.20
2019-05-14T22:05:11.232Z,27.30
2019-05-14T22:07:43.800Z,27.30
2019-05-14T22:10:18.985Z,27.30
2019-05-14T22:12:51.902Z,27.30
2019-05-14T22:15:24.789Z,27.30
2019-05-14T22:17:58.696Z,27.20
2019-05-14T22:20:31.743Z,27.30
2019-05-14T22:23:04.049Z,27.20
2019-05-14T22:25:39.108Z,27.20
2019-05-14T22:28:15.374Z,27.20
2019-05-14T22:30:45.455Z,27.30
2019-05-14T22:33:19.105Z,27.20
2019-05-14T22:35:52.054Z,27.30
2019-05-14T22:38:24.706Z,27.20
2019-05-14T22:40:59.257Z,27.30
2019-05-14T22:43:33.434Z,27.20
2019-05-14T22:46:05.096Z,27.20
2019-05-14T22:48:38.591Z,27.10
2019-05-14T22:51:11.228Z,27.10
2019-05-14T22:53:44.288Z,27.10
2019-05-14T22:56:17.354Z,27.10
2019-05-14T22:58:50.219Z,27.20
2019-05-14T23:01:22.987Z,27.20
2019-05-14T23:04:00.347Z,27.10
2019-05-14T23:06:33.150Z,27.10
2019-05-14T23:09:05.202Z,27.20
2019-05-14T23:11:38.479Z,27.30
2019-05-14T23:14:15.617Z,27.50
2019-05-14T23:16:49.165Z,27.70
2019-05-14T23:19:22.737Z,27.70
2019-05-14T23:21:58.023Z,27.70
2019-05-14T23:24:30.520Z,27.80
2019-05-14T23:27:03.346Z,27.80
2019-05-14T23:29:38.350Z,27.80
2019-05-14T23:32:10.104Z,27.90
2019-05-14T23:34:41.883Z,27.90
2019-05-14T23:37:14.219Z,27.90
2019-05-14T23:39:48.945Z,28.00
2019-05-14T23:42:21.614Z,28.10
2019-05-14T23:44:54.470Z,28.10
2019-05-14T23:47:28.953Z,28.20
2019-05-14T23:50:01.550Z,28.30
2019-05-14T23:52:34.073Z,28.40
2019-05-14T23:55:08.595Z,28.50
2019-05-14T23:57:41.699Z,28.60
